Time;durP1;ratioP1;P1;durP2;ratioP2;P2;SDS_P1;SDS_P2;PMS_P1;PMS_P2;Temp;Humidity;BMP_temperature;BMP_pressure;BME280_temperature;BME280_humidity;BME280_pressure;Samples;Min_cycle;Max_cycle;Signal;HPM_P1;HPM_P2
2022/08/25 00:00:16;;;;;;;0.73;0.63;;;18.40;99.90;;;;;;5039726;28;20056;-74
2022/08/25 00:02:41;;;;;;;2.28;1.15;;;18.20;99.90;;;;;;5039947;28;20052;-72
2022/08/25 00:05:07;;;;;;;0.52;0.45;;;18.10;99.90;;;;;;5040167;28;20399;-73
2022/08/25 00:07:32;;;;;;;1.23;0.82;;;18.00;99.90;;;;;;5040872;28;20042;-74
2022/08/25 00:09:58;;;;;;;0.52;0.52;;;18.00;99.90;;;;;;5040979;28;20124;-73
2022/08/25 00:12:25;;;;;;;3.72;1.55;;;18.10;99.90;;;;;;5041643;28;20042;-73
2022/08/25 00:14:50;;;;;;;0.75;0.75;;;18.10;99.90;;;;;;5024027;28;20079;-73
2022/08/25 00:17:16;;;;;;;0.77;0.30;;;18.20;99.90;;;;;;5041852;28;20079;-74
2022/08/25 00:19:42;;;;;;;2.00;1.20;;;18.20;99.90;;;;;;5040506;28;20046;-74
2022/08/25 00:22:07;;;;;;;2.05;0.68;;;18.10;99.90;;;;;;5023495;28;20548;-73
2022/08/25 00:24:33;;;;;;;0.38;0.38;;;18.10;99.90;;;;;;5041840;28;20189;-73
2022/08/25 00:27:00;;;;;;;5.45;1.38;;;18.10;99.90;;;;;;5041907;28;20041;-74
2022/08/25 00:29:27;;;;;;;1.42;1.02;;;18.20;99.90;;;;;;5042687;28;20060;-74
2022/08/25 00:31:54;;;;;;;12.30;1.98;;;18.10;99.90;;;;;;5024003;28;20042;-73
2022/08/25 00:34:24;;;;;;;1.83;1.17;;;18.10;99.90;;;;;;5044092;28;20049;-74
2022/08/25 00:36:53;;;;;;;1.38;1.00;;;18.10;99.90;;;;;;5022391;28;20049;-74
2022/08/25 00:39:21;;;;;;;1.17;0.95;;;17.90;99.90;;;;;;5042570;28;20042;-74
2022/08/25 00:41:47;;;;;;;1.27;1.05;;;17.80;99.90;;;;;;5043332;28;20041;-74
2022/08/25 00:44:17;;;;;;;0.60;0.50;;;17.70;99.90;;;;;;5042380;28;20496;-73
2022/08/25 00:46:47;;;;;;;3.20;1.45;;;17.70;99.90;;;;;;5041076;28;20045;-73
2022/08/25 00:49:18;;;;;;;1.77;0.98;;;17.60;99.90;;;;;;5040658;28;20042;-73
2022/08/25 00:51:50;;;;;;;0.68;0.68;;;18.60;99.90;;;;;;5005987;28;20049;-74
2022/08/25 00:54:27;;;;;;;1.67;1.42;;;17.50;99.90;;;;;;5021698;28;20120;-74
2022/08/25 00:56:55;;;;;;;2.17;1.08;;;17.40;99.90;;;;;;5038429;28;20147;-72
2022/08/25 00:59:23;;;;;;;1.17;1.05;;;17.30;99.90;;;;;;5021019;28;20125;-73
2022/08/25 01:01:50;;;;;;;1.33;1.00;;;17.30;99.90;;;;;;5021055;28;20428;-74
2022/08/25 01:04:16;;;;;;;4.18;1.80;;;17.40;99.90;;;;;;5040783;28;20052;-72
2022/08/25 01:06:45;;;;;;;1.52;0.90;;;17.30;99.90;;;;;;5040416;28;20051;-73
2022/08/25 01:09:15;;;;;;;0.88;0.65;;;17.30;99.90;;;;;;5042378;28;20101;-74
2022/08/25 01:11:43;;;;;;;2.08;1.60;;;17.20;99.90;;;;;;5042274;28;20415;-75
2022/08/25 01:14:10;;;;;;;3.03;0.75;;;17.20;99.90;;;;;;5042666;28;20045;-74
2022/08/25 01:16:37;;;;;;;0.43;0.43;;;17.30;99.90;;;;;;5042113;28;20033;-74
2022/08/25 01:19:04;;;;;;;2.55;1.83;;;17.20;99.90;;;;;;5041288;28;20488;-74
2022/08/25 01:21:35;;;;;;;5.47;1.13;;;17.30;99.90;;;;;;5039269;28;20116;-72
2022/08/25 01:24:02;;;;;;;1.38;0.65;;;17.20;99.90;;;;;;5021575;28;20503;-75
2022/08/25 01:26:31;;;;;;;0.25;0.20;;;17.20;99.90;;;;;;5039022;28;20045;-74
2022/08/25 01:31:45;;;;;;;0.32;0.32;;;17.10;99.90;;;;;;5024912;28;20057;-73
2022/08/25 01:34:14;;;;;;;1.58;0.50;;;17.00;99.90;;;;;;5037004;28;20077;-72
2022/08/25 01:36:41;;;;;;;0.57;0.50;;;17.00;99.90;;;;;;5036369;28;20455;-74
2022/08/25 01:39:08;;;;;;;0.88;0.57;;;16.90;99.90;;;;;;5034552;28;20037;-73
2022/08/25 01:41:33;;;;;;;2.25;1.05;;;16.80;99.90;;;;;;5035384;28;20508;-75
2022/08/25 01:44:00;;;;;;;1.38;0.90;;;16.80;99.90;;;;;;5036399;28;20049;-73
2022/08/25 01:46:26;;;;;;;0.98;0.35;;;16.70;99.90;;;;;;5016682;28;20052;-74
2022/08/25 01:48:52;;;;;;;0.38;0.38;;;16.60;99.90;;;;;;5016624;28;20481;-74
2022/08/25 01:51:22;;;;;;;0.80;0.73;;;16.60;99.90;;;;;;5036593;28;20049;-74
2022/08/25 01:53:49;;;;;;;1.50;1.05;;;16.50;99.90;;;;;;5036968;28;20037;-73
2022/08/25 01:56:16;;;;;;;2.80;1.48;;;16.40;99.90;;;;;;5101719;22;20080;-90
2022/08/25 01:58:45;;;;;;;1.63;0.80;;;16.40;99.90;;;;;;5054599;28;20041;-90
2022/08/25 02:01:16;;;;;;;0.57;0.47;;;16.40;99.90;;;;;;5038792;28;20092;-89
2022/08/25 02:03:43;;;;;;;0.30;0.30;;;16.30;99.90;;;;;;5055348;28;20046;-90
2022/08/25 02:06:22;;;;;;;0.80;0.73;;;16.30;99.90;;;;;;5054811;28;20045;-90
2022/08/25 02:08:57;;;;;;;1.20;1.02;;;16.30;99.90;;;;;;5024465;28;20052;-90
2022/08/25 02:11:23;;;;;;;2.20;0.85;;;16.20;99.90;;;;;;5059933;28;20048;-91
2022/08/25 02:13:49;;;;;;;1.02;0.77;;;16.30;99.90;;;;;;5043387;28;20041;-90
2022/08/25 02:16:23;;;;;;;4.18;0.88;;;16.20;99.90;;;;;;5042362;28;20048;-91
2022/08/25 02:18:49;;;;;;;3.47;1.10;;;16.20;99.90;;;;;;5042336;28;20038;-91
2022/08/25 02:21:15;;;;;;;6.43;2.33;;;16.30;99.90;;;;;;5043123;28;20050;-91
2022/08/25 02:23:41;;;;;;;0.47;0.45;;;16.10;99.90;;;;;;5060368;28;20038;-90
2022/08/25 02:26:08;;;;;;;1.00;0.82;;;16.10;99.90;;;;;;5043316;28;20034;-90
2022/08/25 02:28:36;;;;;;;0.60;0.60;;;16.20;99.90;;;;;;5059973;28;20061;-90
2022/08/25 02:31:03;;;;;;;1.23;0.95;;;16.10;99.90;;;;;;5043418;28;20033;-91
2022/08/25 02:33:28;;;;;;;3.17;0.70;;;16.00;99.90;;;;;;5060227;28;20073;-90
2022/08/25 02:36:00;;;;;;;0.38;0.35;;;16.00;99.90;;;;;;5059822;28;20048;-90
2022/08/25 02:38:29;;;;;;;0.43;0.43;;;16.00;99.90;;;;;;5042242;28;20048;-91
2022/08/25 02:40:55;;;;;;;1.88;1.48;;;16.00;99.90;;;;;;5026374;28;20152;-91
2022/08/25 02:43:21;;;;;;;9.60;0.73;;;15.90;99.90;;;;;;5043172;28;20089;-90
2022/08/25 02:45:47;;;;;;;0.52;0.40;;;15.90;99.90;;;;;;5060305;28;20037;-91
2022/08/25 02:48:12;;;;;;;0.82;0.68;;;15.90;99.90;;;;;;5042877;28;20017;-90
2022/08/25 02:50:38;;;;;;;0.75;0.52;;;15.90;99.90;;;;;;5043093;28;20022;-91
2022/08/25 02:53:04;;;;;;;0.55;0.55;;;16.60;99.90;;;;;;5059993;28;20056;-91
2022/08/25 02:55:30;;;;;;;0.43;0.25;;;16.00;99.90;;;;;;5060012;28;20021;-91
2022/08/25 02:57:55;;;;;;;0.52;0.43;;;15.80;99.90;;;;;;5025521;28;20046;-90
2022/08/25 03:00:21;;;;;;;1.25;0.75;;;15.90;99.90;;;;;;5039345;28;20060;-91
2022/08/25 03:02:47;;;;;;;0.70;0.55;;;16.50;99.90;;;;;;5039287;28;20034;-91
2022/08/25 03:05:14;;;;;;;0.75;0.73;;;15.80;99.90;;;;;;5021420;28;20042;-91
2022/08/25 03:07:40;;;;;;;1.98;0.90;;;15.80;99.90;;;;;;5039232;28;20038;-90
2022/08/25 03:10:13;;;;;;;0.40;0.40;;;15.70;99.90;;;;;;5038711;28;20022;-90
2022/08/25 03:12:40;;;;;;;2.45;0.57;;;15.90;99.90;;;;;;5022435;28;20056;-91
2022/08/25 03:15:10;;;;;;;1.02;0.95;;;15.80;99.90;;;;;;5039036;28;20098;-91
2022/08/25 03:17:36;;;;;;;0.75;0.40;;;15.90;99.90;;;;;;5021353;28;20049;-90
2022/08/25 03:20:04;;;;;;;1.27;0.95;;;15.80;99.90;;;;;;5037766;28;20081;-91
2022/08/25 03:22:30;;;;;;;0.85;0.73;;;15.80;99.90;;;;;;5005052;28;20033;-90
2022/08/25 03:26:52;;;;;;;0.60;0.38;;;15.70;99.90;;;;;;5021490;28;20034;-90
2022/08/25 03:27:41;;;;;;;1.53;0.97;;;15.70;99.90;;;;;;5037834;28;20053;-91
2022/08/25 03:30:08;;;;;;;1.65;0.50;;;15.70;99.90;;;;;;5004244;28;20097;-90
2022/08/25 03:32:33;;;;;;;2.88;0.95;;;15.60;99.90;;;;;;5003950;28;20046;-91
2022/08/25 03:35:00;;;;;;;0.60;0.60;;;15.60;99.90;;;;;;5035290;28;20266;-90
2022/08/25 03:37:26;;;;;;;1.35;0.90;;;15.70;99.90;;;;;;5039118;28;20022;-91
2022/08/25 03:39:51;;;;;;;1.40;0.88;;;15.70;99.90;;;;;;5023160;28;20090;-91
2022/08/25 03:42:17;;;;;;;0.90;0.88;;;15.60;99.90;;;;;;5039287;28;20034;-90
2022/08/25 03:44:43;;;;;;;7.18;1.63;;;15.60;99.90;;;;;;5021153;28;20054;-90
2022/08/25 03:47:09;;;;;;;1.15;0.55;;;15.60;99.90;;;;;;5038503;28;20034;-90
2022/08/25 03:49:34;;;;;;;2.17;0.68;;;15.80;99.90;;;;;;5038867;28;20045;-92
2022/08/25 03:52:00;;;;;;;1.13;0.82;;;15.70;99.90;;;;;;5039397;28;20034;-92
2022/08/25 03:54:26;;;;;;;0.40;0.30;;;15.60;99.90;;;;;;5022013;28;20050;-91
2022/08/25 03:56:52;;;;;;;0.57;0.40;;;15.50;99.90;;;;;;5021910;28;20030;-92
2022/08/25 03:59:18;;;;;;;0.10;0.10;;;15.40;99.90;;;;;;5022407;28;20048;-91
2022/08/25 04:01:45;;;;;;;0.55;0.52;;;15.30;99.90;;;;;;5005859;28;20052;-91
2022/08/25 04:04:13;;;;;;;1.40;0.52;;;16.10;99.90;;;;;;5005933;28;20026;-92
2022/08/25 04:06:40;;;;;;;6.97;0.90;;;16.10;99.90;;;;;;5022152;28;20038;-91
2022/08/25 04:09:06;;;;;;;0.30;0.30;;;15.10;99.90;;;;;;5021898;28;20025;-92
2022/08/25 04:11:32;;;;;;;1.00;0.73;;;15.10;99.90;;;;;;5022151;28;20052;-92
2022/08/25 04:13:59;;;;;;;1.20;0.68;;;15.50;99.90;;;;;;5022060;28;20041;-91
2022/08/25 04:16:29;;;;;;;2.45;1.65;;;14.90;99.90;;;;;;5038525;28;20077;-91
2022/08/25 04:18:56;;;;;;;1.25;0.98;;;14.80;99.90;;;;;;5002110;28;20018;-92
2022/08/25 04:21:23;;;;;;;0.68;0.38;;;14.70;99.90;;;;;;5001817;28;20089;-90
2022/08/25 04:23:50;;;;;;;0.50;0.50;;;14.60;99.90;;;;;;5002341;28;20053;-90
2022/08/25 04:26:20;;;;;;;1.05;0.77;;;14.60;99.90;;;;;;5018127;28;20045;-92
2022/08/25 04:28:46;;;;;;;0.47;0.45;;;14.70;99.90;;;;;;5001025;28;20062;-92
2022/08/25 04:31:15;;;;;;;2.60;1.65;;;14.70;99.90;;;;;;4985116;28;20027;-92
2022/08/25 04:33:42;;;;;;;0.52;0.38;;;14.70;99.90;;;;;;5000702;28;20034;-91
2022/08/25 04:36:10;;;;;;;1.10;0.70;;;14.80;99.90;;;;;;4999225;28;20061;-92
2022/08/25 04:38:37;;;;;;;3.72;1.75;;;14.80;99.90;;;;;;5000548;28;20029;-92
2022/08/25 04:41:05;;;;;;;0.20;0.20;;;15.00;99.90;;;;;;5018675;28;20102;-92
2022/08/25 04:43:32;;;;;;;2.13;1.27;;;15.00;99.90;;;;;;5018624;28;20018;-92
2022/08/25 04:45:58;;;;;;;0.85;0.85;;;15.00;99.90;;;;;;5001789;28;20026;-92
2022/08/25 04:48:24;;;;;;;1.02;0.70;;;15.00;99.90;;;;;;5001771;28;20035;-93
2022/08/25 04:50:50;;;;;;;0.57;0.35;;;15.10;99.90;;;;;;5001950;28;20036;-92
2022/08/25 04:53:17;;;;;;;5.45;1.17;;;15.00;99.90;;;;;;5001850;28;20054;-93
2022/08/25 04:55:46;;;;;;;0.60;0.55;;;15.10;99.90;;;;;;5018108;28;20113;-92
2022/08/25 04:58:14;;;;;;;9.13;1.13;;;15.20;99.90;;;;;;4985211;28;20065;-92
2022/08/25 05:00:40;;;;;;;1.20;0.60;;;16.30;99.90;;;;;;5001542;28;20664;-92
2022/08/25 05:03:07;;;;;;;1.40;1.02;;;15.30;99.90;;;;;;5001399;28;20030;-92
2022/08/25 05:05:36;;;;;;;2.50;1.40;;;15.50;99.90;;;;;;5018145;28;20022;-92
2022/08/25 05:08:02;;;;;;;0.43;0.40;;;15.50;99.90;;;;;;5017510;28;20034;-92
2022/08/25 05:10:28;;;;;;;0.47;0.47;;;15.50;99.90;;;;;;5000326;28;20054;-92
2022/08/25 05:12:53;;;;;;;1.70;0.93;;;15.60;99.90;;;;;;5000312;28;20030;-92
2022/08/25 05:18:04;;;;;;;7.70;2.10;;;15.80;99.90;;;;;;5000271;28;20080;-92
2022/08/25 05:20:30;;;;;;;1.73;0.90;;;16.00;99.90;;;;;;5017164;28;20030;-92
2022/08/25 05:22:56;;;;;;;0.57;0.52;;;16.00;99.90;;;;;;5016761;28;20032;-92
2022/08/25 05:25:22;;;;;;;1.48;0.77;;;16.30;99.90;;;;;;5016978;28;20114;-92
2022/08/25 05:27:48;;;;;;;1.77;1.08;;;16.10;99.90;;;;;;5017215;28;20049;-92
2022/08/25 05:30:14;;;;;;;1.38;1.02;;;17.00;99.90;;;;;;5018056;28;20043;-92
2022/08/25 05:32:40;;;;;;;1.95;1.23;;;16.40;99.90;;;;;;5019878;28;20033;-91
2022/08/25 05:35:06;;;;;;;0.30;0.25;;;16.50;99.90;;;;;;5005142;28;20034;-92
2022/08/25 05:37:32;;;;;;;1.92;1.65;;;16.60;99.90;;;;;;5005265;28;20014;-92
2022/08/25 05:39:59;;;;;;;1.02;0.25;;;16.70;99.90;;;;;;5005350;28;20049;-92
2022/08/25 05:42:25;;;;;;;1.05;0.90;;;16.70;99.90;;;;;;5005363;28;20094;-92
2022/08/25 05:44:51;;;;;;;2.10;0.80;;;16.80;99.90;;;;;;5005136;28;20046;-92
2022/08/25 05:47:17;;;;;;;0.47;0.47;;;17.20;99.90;;;;;;5005138;28;20057;-91
2022/08/25 05:49:43;;;;;;;4.18;1.23;;;17.00;99.90;;;;;;4989064;28;20045;-92
2022/08/25 05:52:08;;;;;;;1.55;1.10;;;18.00;99.90;;;;;;5005062;28;20038;-91
2022/08/25 05:54:34;;;;;;;1.13;0.55;;;17.90;99.90;;;;;;5005036;28;20026;-91
2022/08/25 05:57:00;;;;;;;0.77;0.52;;;17.30;99.90;;;;;;5021490;28;20038;-92
2022/08/25 05:59:25;;;;;;;0.20;0.20;;;17.30;99.90;;;;;;5021665;28;20102;-92
2022/08/25 06:04:35;;;;;;;1.27;0.82;;;17.70;99.90;;;;;;5005029;28;20053;-92
2022/08/25 06:07:01;;;;;;;0.77;0.63;;;17.50;99.90;;;;;;4988682;28;20030;-92
2022/08/25 06:09:26;;;;;;;1.13;0.80;;;18.60;99.90;;;;;;5021470;28;20233;-91
2022/08/25 06:11:52;;;;;;;1.95;0.45;;;18.60;99.90;;;;;;5021639;28;20026;-91
2022/08/25 06:14:19;;;;;;;0.80;0.70;;;18.20;99.90;;;;;;5021360;28;20029;-91
2022/08/25 06:16:47;;;;;;;1.38;0.63;;;18.20;99.90;;;;;;5021662;28;20028;-92
2022/08/25 06:19:13;;;;;;;1.50;0.80;;;18.90;99.90;;;;;;5004595;28;20034;-92
2022/08/25 06:21:39;;;;;;;0.63;0.47;;;19.70;99.90;;;;;;4988433;28;20030;-92
2022/08/25 06:24:05;;;;;;;5.07;2.03;;;20.40;99.90;;;;;;5021242;28;20014;-91
2022/08/25 06:26:31;;;;;;;8.80;1.42;;;20.70;99.90;;;;;;5021383;28;20074;-92
2022/08/25 06:28:57;;;;;;;0.20;0.20;;;21.00;99.90;;;;;;5004420;28;20026;-91
2022/08/25 06:31:23;;;;;;;1.17;0.77;;;21.60;99.90;;;;;;5004378;28;20055;-91
2022/08/25 06:33:49;;;;;;;1.25;1.02;;;22.00;99.90;;;;;;5004351;28;20027;-92
2022/08/25 06:36:15;;;;;;;0.45;0.22;;;22.40;99.90;;;;;;5004249;28;20106;-92
2022/08/25 06:38:41;;;;;;;0.57;0.50;;;22.90;99.90;;;;;;5004255;28;20026;-92
2022/08/25 06:41:09;;;;;;;0.82;0.82;;;22.40;99.90;;;;;;5020794;28;20038;-92
2022/08/25 06:43:35;;;;;;;1.83;0.70;;;22.90;99.90;;;;;;5020547;28;20115;-92
2022/08/25 06:46:16;;;;;;;0.52;0.38;;;23.60;99.90;;;;;;5020922;28;20027;-92
2022/08/25 06:48:41;;;;;;;0.47;0.40;;;22.80;99.90;;;;;;5004131;28;20069;-93
2022/08/25 06:51:09;;;;;;;0.40;0.30;;;23.00;99.90;;;;;;4987932;28;20023;-92
2022/08/25 06:53:35;;;;;;;1.38;0.80;;;22.70;99.90;;;;;;5020653;28;20058;-92
2022/08/25 06:56:01;;;;;;;0.30;0.30;;;23.40;99.90;;;;;;5020432;28;20031;-92
2022/08/25 06:58:27;;;;;;;0.57;0.57;;;23.10;99.90;;;;;;5020264;28;20043;-92
2022/08/25 07:00:55;;;;;;;1.60;0.68;;;23.10;99.90;;;;;;4987768;28;20093;-92
2022/08/25 07:03:21;;;;;;;1.30;0.73;;;23.80;99.90;;;;;;5003784;28;20041;-92
2022/08/25 07:05:55;;;;;;;2.10;1.23;;;23.80;99.90;;;;;;4987838;28;20022;-91
2022/08/25 07:08:22;;;;;;;1.90;1.05;;;23.90;99.90;;;;;;5003864;28;20041;-92
2022/08/25 07:10:47;;;;;;;2.50;1.70;;;24.40;99.90;;;;;;4987834;28;20052;-92
2022/08/25 07:13:14;;;;;;;0.43;0.32;;;24.10;99.90;;;;;;5003825;28;20022;-92
2022/08/25 07:15:40;;;;;;;0.95;0.77;;;24.00;99.90;;;;;;5003949;28;20069;-92
2022/08/25 07:18:10;;;;;;;1.05;0.68;;;24.30;99.90;;;;;;5001323;28;20053;-87
2022/08/25 07:20:37;;;;;;;1.13;0.93;;;24.30;99.90;;;;;;5016524;28;20045;-88
2022/08/25 07:23:03;;;;;;;3.35;1.10;;;24.60;99.90;;;;;;5000232;28;20029;-88
2022/08/25 07:25:29;;;;;;;3.97;1.27;;;25.00;99.90;;;;;;5015601;28;20027;-88
2022/08/25 07:27:55;;;;;;;0.85;0.63;;;25.00;96.20;;;;;;5001759;28;20078;-88
2022/08/25 07:30:20;;;;;;;0.52;0.38;;;25.10;92.10;;;;;;5003506;28;20023;-88
2022/08/25 07:32:46;;;;;;;0.73;0.47;;;25.30;95.00;;;;;;5019832;28;20110;-88
2022/08/25 07:35:14;;;;;;;1.88;1.00;;;25.60;88.10;;;;;;5002957;28;20034;-87
2022/08/25 07:37:42;;;;;;;1.63;1.15;;;25.40;81.90;;;;;;5018625;28;20130;-88
2022/08/25 07:40:12;;;;;;;0.52;0.38;;;25.40;86.90;;;;;;5018284;28;20027;-88
2022/08/25 07:42:38;;;;;;;0.57;0.45;;;26.30;76.20;;;;;;5018394;28;20023;-88
2022/08/25 07:45:05;;;;;;;11.50;0.93;;;26.10;70.80;;;;;;5018137;28;20086;-87
2022/08/25 07:47:31;;;;;;;2.67;0.52;;;26.40;68.70;;;;;;5018177;28;20026;-88
2022/08/25 07:52:41;;;;;;;0.82;0.68;;;26.50;73.40;;;;;;5041774;28;20071;-74
2022/08/25 07:55:08;;;;;;;0.63;0.57;;;26.70;56.90;;;;;;5032300;28;20041;-75
2022/08/25 07:57:33;;;;;;;0.40;0.17;;;27.10;60.70;;;;;;5031333;28;20444;-75
2022/08/25 07:59:59;;;;;;;1.25;0.73;;;27.80;54.90;;;;;;5031099;28;20075;-75
2022/08/25 08:02:25;;;;;;;0.40;0.40;;;27.30;45.20;;;;;;5031611;28;20112;-75
2022/08/25 08:04:52;;;;;;;0.25;0.25;;;27.00;45.80;;;;;;5031199;28;20087;-75
2022/08/25 08:07:21;;;;;;;0.47;0.47;;;27.30;45.90;;;;;;5031470;28;20504;-75
2022/08/25 08:09:47;;;;;;;1.25;1.02;;;27.20;49.20;;;;;;5031596;28;20477;-75
2022/08/25 08:12:13;;;;;;;0.38;0.35;;;27.30;57.30;;;;;;5014056;28;20099;-75
2022/08/25 08:14:38;;;;;;;0.17;0.15;;;27.40;42.40;;;;;;5031670;28;20068;-75
2022/08/25 08:17:08;;;;;;;1.25;0.95;;;27.30;45.60;;;;;;5031501;28;20048;-76
2022/08/25 08:19:35;;;;;;;2.50;0.90;;;27.60;48.10;;;;;;5034881;28;20081;-76
2022/08/25 08:22:02;;;;;;;0.63;0.28;;;28.20;35.00;;;;;;5050138;28;20128;-75
2022/08/25 08:24:37;;;;;;;0.73;0.68;;;28.10;33.80;;;;;;5050141;28;20293;-75
2022/08/25 08:27:04;;;;;;;0.98;0.43;;;28.50;30.60;;;;;;5051685;28;20045;-73
2022/08/25 08:29:30;;;;;;;0.85;0.47;;;28.90;23.70;;;;;;5049595;28;20049;-73
2022/08/25 08:31:55;;;;;;;2.28;1.10;;;29.20;26.70;;;;;;5049615;28;20056;-73
2022/08/25 08:34:22;;;;;;;0.40;0.38;;;28.80;20.80;;;;;;5051087;28;20041;-76
2022/08/25 08:36:48;;;;;;;0.90;0.47;;;29.20;18.10;;;;;;5049937;28;20044;-73
2022/08/25 08:39:14;;;;;;;1.35;0.80;;;29.90;16.90;;;;;;5049831;28;20138;-73
2022/08/25 08:44:33;;;;;;;0.73;0.60;;;30.10;12.60;;;;;;5049447;28;20083;-74
2022/08/25 08:47:02;;;;;;;1.15;0.95;;;30.20;10.90;;;;;;5049473;28;20376;-75
2022/08/25 08:49:42;;;;;;;1.30;0.70;;;30.00;12.10;;;;;;5048581;28;20106;-73
2022/08/25 08:52:11;;;;;;;0.30;0.20;;;29.80;12.90;;;;;;5049317;28;20067;-73
2022/08/25 08:54:41;;;;;;;0.17;0.13;;;29.80;15.40;;;;;;5049677;28;20102;-74
2022/08/25 08:57:21;;;;;;;1.08;0.88;;;29.90;11.90;;;;;;5050381;28;20057;-73
2022/08/25 08:59:52;;;;;;;0.10;0.10;;;29.90;6.40;;;;;;5049110;28;20655;-73
2022/08/25 09:02:45;;;;;;;7.00;1.73;;;30.20;7.50;;;;;;5050035;28;20083;-75
2022/08/25 09:05:18;;;;;;;1.45;0.40;;;30.30;3.60;;;;;;5023688;28;20515;-73
2022/08/25 09:07:54;;;;;;;0.75;0.52;;;30.30;5.80;;;;;;5049044;28;20079;-73
2022/08/25 09:10:20;;;;;;;0.22;0.22;;;30.20;4.10;;;;;;5049889;28;20121;-74
2022/08/25 09:13:05;;;;;;;0.65;0.25;;;30.40;1.00;;;;;;5049444;28;20041;-73
2022/08/25 09:19:04;;;;;;;0.98;0.47;;;31.00;3.10;;;;;;5049315;28;20572;-73
2022/08/25 09:22:05;;;;;;;0.40;0.38;;;30.80;1.00;;;;;;5049553;28;20462;-73
2022/08/25 09:24:50;;;;;;;0.20;0.20;;;30.20;1.00;;;;;;5049418;28;20055;-74
2022/08/25 09:27:26;;;;;;;0.60;0.47;;;30.30;1.00;;;;;;5049215;28;20083;-73
2022/08/25 09:30:08;;;;;;;0.70;0.30;;;30.70;2.40;;;;;;5049438;28;20104;-74
2022/08/25 09:32:39;;;;;;;0.30;0.20;;;30.40;1.00;;;;;;5049030;28;20045;-72
2022/08/25 09:35:06;;;;;;;0.65;0.40;;;30.50;1.00;;;;;;5049267;28;20067;-73
2022/08/25 09:37:32;;;;;;;0.00;0.00;;;29.90;1.00;;;;;;5048843;28;20783;-73
2022/08/25 09:39:57;;;;;;;1.45;0.52;;;30.00;1.00;;;;;;5050875;28;20092;-73
2022/08/25 09:42:50;;;;;;;0.65;0.38;;;29.90;1.00;;;;;;5051053;28;20049;-74
2022/08/25 09:45:42;;;;;;;0.73;0.55;;;30.20;1.00;;;;;;5050558;28;20372;-73
2022/08/25 09:48:28;;;;;;;2.03;1.25;;;30.30;1.00;;;;;;5048921;28;20060;-73
2022/08/25 09:51:00;;;;;;;1.30;0.60;;;30.10;1.00;;;;;;5048701;28;20559;-74
2022/08/25 09:53:26;;;;;;;1.85;0.90;;;30.10;1.00;;;;;;5049044;28;20399;-73
2022/08/25 09:55:58;;;;;;;2.10;1.13;;;29.90;1.00;;;;;;5032659;28;20042;-74
2022/08/25 09:58:24;;;;;;;0.60;0.45;;;30.00;1.00;;;;;;5013684;28;20037;-73
2022/08/25 10:01:13;;;;;;;0.82;0.43;;;29.90;1.00;;;;;;5039732;28;20096;-72
2022/08/25 10:03:54;;;;;;;0.25;0.20;;;29.40;1.00;;;;;;5048918;28;20106;-73
2022/08/25 10:06:21;;;;;;;2.25;0.65;;;29.80;1.00;;;;;;5048784;28;20057;-73
2022/08/25 10:08:47;;;;;;;0.95;0.60;;;29.90;1.00;;;;;;5048732;28;20080;-73
2022/08/25 10:11:29;;;;;;;0.63;0.50;;;29.70;1.00;;;;;;5048987;28;20077;-73
2022/08/25 10:14:06;;;;;;;0.63;0.43;;;29.80;1.00;;;;;;5048682;28;20526;-73
2022/08/25 10:16:32;;;;;;;0.40;0.25;;;29.80;1.00;;;;;;5039315;28;20373;-73
2022/08/25 10:19:25;;;;;;;0.75;0.55;;;29.80;1.00;;;;;;5031270;28;20506;-74
2022/08/25 10:22:31;;;;;;;1.55;0.82;;;29.70;1.00;;;;;;5037837;28;20045;-73
2022/08/25 10:24:58;;;;;;;0.55;0.43;;;29.80;1.00;;;;;;5050433;28;20056;-73
2022/08/25 10:27:49;;;;;;;0.52;0.40;;;29.70;1.00;;;;;;5051035;28;20537;-73
2022/08/25 10:30:34;;;;;;;0.40;0.40;;;29.70;1.00;;;;;;5051767;28;20063;-73
2022/08/25 10:33:21;;;;;;;0.68;0.40;;;29.70;1.00;;;;;;5051909;28;20124;-73
2022/08/25 10:35:57;;;;;;;0.20;0.13;;;30.10;1.00;;;;;;5052041;28;20360;-74
2022/08/25 10:38:26;;;;;;;0.38;0.32;;;30.60;1.00;;;;;;5051848;28;20084;-73
2022/08/25 10:41:02;;;;;;;0.08;0.08;;;30.60;1.00;;;;;;5052174;28;20052;-73
2022/08/25 10:43:38;;;;;;;1.40;1.00;;;30.50;1.00;;;;;;5052601;28;20060;-73
2022/08/25 10:46:06;;;;;;;0.10;0.10;;;30.50;1.00;;;;;;5051681;28;20471;-73
2022/08/25 10:49:03;;;;;;;0.35;0.20;;;30.50;1.00;;;;;;5051821;28;20071;-73
2022/08/25 10:51:42;;;;;;;5.78;0.80;;;30.50;1.00;;;;;;5051773;28;20415;-73
2022/08/25 10:54:47;;;;;;;0.98;0.47;;;31.00;1.00;;;;;;5051580;28;20047;-73
2022/08/25 10:57:38;;;;;;;2.17;0.73;;;31.50;1.00;;;;;;5051779;28;20068;-73
2022/08/25 11:00:09;;;;;;;0.28;0.22;;;31.60;1.00;;;;;;5051824;28;20037;-73
2022/08/25 11:02:41;;;;;;;0.52;0.15;;;31.40;1.00;;;;;;5051749;28;20049;-74
2022/08/25 11:05:27;;;;;;;1.17;0.80;;;31.40;1.00;;;;;;5051211;28;20403;-72
2022/08/25 11:08:03;;;;;;;0.45;0.30;;;31.30;1.00;;;;;;5051531;28;20055;-73
2022/08/25 11:10:42;;;;;;;0.30;0.22;;;31.30;1.00;;;;;;5033757;28;20052;-73
2022/08/25 11:13:19;;;;;;;1.23;0.55;;;31.60;1.00;;;;;;5033804;28;20045;-73
2022/08/25 11:15:53;;;;;;;0.35;0.20;;;31.70;1.00;;;;;;5050608;28;20056;-73
2022/08/25 11:18:19;;;;;;;0.10;0.10;;;31.80;1.00;;;;;;5051249;28;20049;-73
2022/08/25 11:21:08;;;;;;;8.90;0.52;;;31.80;1.00;;;;;;5051015;28;20081;-73
2022/08/25 11:23:43;;;;;;;0.73;0.57;;;31.70;1.00;;;;;;5050837;28;20176;-73
2022/08/25 11:26:16;;;;;;;0.60;0.60;;;32.30;1.00;;;;;;5051255;28;20060;-73
2022/08/25 11:28:41;;;;;;;1.02;0.65;;;33.10;1.00;;;;;;5050700;28;20566;-73
2022/08/25 11:31:08;;;;;;;0.70;0.47;;;32.80;1.00;;;;;;5049959;28;20132;-73
2022/08/25 11:33:34;;;;;;;2.72;1.15;;;33.40;1.00;;;;;;5050449;28;20458;-73
2022/08/25 11:36:18;;;;;;;0.55;0.52;;;33.70;1.00;;;;;;5050494;28;20045;-73
2022/08/25 11:39:08;;;;;;;0.28;0.20;;;33.40;1.00;;;;;;5051364;28;20511;-73
2022/08/25 11:41:40;;;;;;;0.20;0.20;;;33.30;1.00;;;;;;5050745;28;20049;-73
2022/08/25 11:44:11;;;;;;;0.30;0.20;;;33.30;1.00;;;;;;5050830;28;20048;-73
2022/08/25 11:47:06;;;;;;;0.60;0.60;;;33.60;1.00;;;;;;5050134;28;20045;-73
2022/08/25 11:49:40;;;;;;;1.55;0.47;;;33.40;1.00;;;;;;5050503;28;20539;-74
2022/08/25 11:52:31;;;;;;;0.10;0.10;;;33.90;1.00;;;;;;5050561;28;20343;-73
2022/08/25 11:55:11;;;;;;;0.52;0.25;;;34.50;1.00;;;;;;5050626;28;20385;-73
2022/08/25 11:57:37;;;;;;;0.30;0.28;;;33.20;1.00;;;;;;5050669;28;20045;-72
2022/08/25 12:00:12;;;;;;;5.82;0.88;;;33.30;1.00;;;;;;5050601;28;20057;-74
2022/08/25 12:02:46;;;;;;;0.17;0.17;;;33.10;1.00;;;;;;5050578;28;20049;-73
2022/08/25 12:05:40;;;;;;;1.60;0.40;;;34.00;1.00;;;;;;5050707;28;20075;-73
2022/08/25 12:11:00;;;;;;;0.00;0.00;;;34.10;1.00;;;;;;5039197;28;20485;-73
2022/08/25 12:13:46;;;;;;;0.08;0.08;;;34.20;1.00;;;;;;5030547;28;20067;-73
2022/08/25 12:16:37;;;;;;;0.10;0.10;;;33.80;1.00;;;;;;5030034;28;20194;-74
2022/08/25 12:19:21;;;;;;;0.15;0.10;;;33.70;1.00;;;;;;5030384;28;20132;-73
2022/08/25 12:21:47;;;;;;;0.30;0.20;;;33.70;1.00;;;;;;5030076;28;20049;-74
2022/08/25 12:24:14;;;;;;;0.98;0.55;;;33.90;1.00;;;;;;5029560;28;20053;-74
2022/08/25 12:27:02;;;;;;;0.10;0.10;;;33.80;1.00;;;;;;5030543;28;20487;-74
2022/08/25 12:29:46;;;;;;;3.72;0.85;;;34.20;1.00;;;;;;5040666;28;20577;-73
2022/08/25 12:32:23;;;;;;;0.38;0.32;;;34.30;1.00;;;;;;5038646;28;20042;-73
2022/08/25 12:35:24;;;;;;;0.32;0.25;;;33.20;1.00;;;;;;5046897;28;20052;-73
2022/08/25 12:38:14;;;;;;;0.35;0.22;;;33.80;1.00;;;;;;5048017;28;20045;-74
2022/08/25 12:40:43;;;;;;;0.57;0.30;;;34.80;1.00;;;;;;5048688;28;20076;-73
2022/08/25 12:43:25;;;;;;;0.90;0.50;;;34.50;1.00;;;;;;5040573;28;20056;-73
2022/08/25 12:45:53;;;;;;;0.30;0.28;;;33.60;1.00;;;;;;5036622;28;20041;-73
2022/08/25 12:48:25;;;;;;;0.65;0.35;;;34.20;1.00;;;;;;5039621;28;20033;-73
2022/08/25 12:50:57;;;;;;;0.08;0.08;;;34.60;1.00;;;;;;5031713;28;20049;-73
2022/08/25 12:53:37;;;;;;;0.30;0.28;;;35.00;1.00;;;;;;5037741;28;20055;-74
2022/08/25 12:56:17;;;;;;;0.10;0.10;;;34.80;1.00;;;;;;5035045;28;20586;-72
2022/08/25 12:59:01;;;;;;;0.00;0.00;;;34.10;1.00;;;;;;5012485;28;20103;-74
2022/08/25 13:01:46;;;;;;;0.90;0.35;;;34.20;1.00;;;;;;5033900;28;20052;-73
2022/08/25 13:04:26;;;;;;;0.32;0.30;;;34.30;1.00;;;;;;5020224;28;20056;-74
2022/08/25 13:07:07;;;;;;;0.38;0.28;;;34.90;1.00;;;;;;5034844;28;20057;-73
2022/08/25 13:10:00;;;;;;;0.75;0.45;;;35.90;1.00;;;;;;5029623;28;20056;-74
2022/08/25 13:12:34;;;;;;;0.10;0.10;;;36.50;1.00;;;;;;5032372;28;20047;-73
2022/08/25 13:14:59;;;;;;;0.95;0.30;;;36.10;1.00;;;;;;5038355;28;20435;-73
2022/08/25 13:17:35;;;;;;;0.75;0.50;;;35.30;1.00;;;;;;5039187;28;20053;-73
2022/08/25 13:20:19;;;;;;;1.05;0.57;;;34.70;1.00;;;;;;5038304;28;20042;-73
2022/08/25 13:22:50;;;;;;;2.20;0.38;;;35.50;1.00;;;;;;5038530;28;20048;-73
2022/08/25 13:25:22;;;;;;;0.60;0.60;;;36.60;1.00;;;;;;5038997;28;20466;-73
2022/08/25 13:27:51;;;;;;;1.00;0.73;;;36.20;1.00;;;;;;5039065;28;20232;-73